Time,TemperatureF,DewpointF,PressureIn,WindDirection,WindDirectionDegrees,WindSpeedMPH,WindSpeedGustMPH,Humidity,HourlyPrecipIn,Conditions,Clouds,dailyrainin,SoftwareType,DateUTC
2013-04-08 00:08:00,55.4,51.0,29.91,SW,217,0.0,1.0,85,0.00,,,0.00,weatherlink.com 1.10,2013-04-08 05:08:00,
2013-04-08 00:23:00,56.4,51.0,29.91,SW,217,0.0,1.0,83,0.00,,,0.00,weatherlink.com 1.10,2013-04-08 05:23:00,
2013-04-08 00:38:00,57.4,52.0,29.91,SW,214,0.0,1.0,81,0.00,,,0.00,weatherlink.com 1.10,2013-04-08 05:38:00,
2013-04-08 00:53:00,58.0,52.0,29.91,SSW,205,0.0,1.0,80,0.00,,,0.00,weatherlink.com 1.10,2013-04-08 05:53:00,
2013-04-08 01:08:00,58.7,52.0,29.91,South,176,0.0,1.0,79,0.00,,,0.00,weatherlink.com 1.10,2013-04-08 06:08:00,
2013-04-08 01:23:00,59.1,52.0,29.91,South,176,0.0,1.0,78,0.00,,,0.00,weatherlink.com 1.10,2013-04-08 06:23:00,
2013-04-08 01:38:00,59.0,53.0,29.91,South,176,0.0,1.0,79,0.00,,,0.00,weatherlink.com 1.10,2013-04-08 06:38:00,
2013-04-08 01:53:00,60.1,53.0,29.91,South,176,0.0,1.0,78,0.00,,,0.00,weatherlink.com 1.10,2013-04-08 06:53:00,
2013-04-08 02:08:00,60.7,53.0,29.91,South,176,0.0,1.0,76,0.00,,,0.00,weatherlink.com 1.10,2013-04-08 07:08:00,
2013-04-08 02:23:00,61.1,54.0,29.91,South,176,0.0,1.0,76,0.00,,,0.00,weatherlink.com 1.10,2013-04-08 07:23:00,
2013-04-08 02:53:00,62.8,54.0,29.90,South,188,0.0,2.0,74,0.00,,,0.00,weatherlink.com 1.10,2013-04-08 07:53:00,
2013-04-08 03:24:00,63.5,55.0,29.90,SSW,212,1.0,2.0,73,0.00,,,0.00,weatherlink.com 1.10,2013-04-08 08:24:00,
2013-04-08 03:39:00,63.4,55.0,29.91,SSW,208,1.0,1.0,74,0.00,,,0.00,weatherlink.com 1.10,2013-04-08 08:39:00,
2013-04-08 03:54:00,63.2,55.0,29.90,SSW,200,1.0,1.0,75,0.00,,,0.00,weatherlink.com 1.10,2013-04-08 08:54:00,
2013-04-08 04:09:00,63.2,55.0,29.90,South,172,0.0,1.0,75,0.00,,,0.00,weatherlink.com 1.10,2013-04-08 09:09:00,
2013-04-08 04:24:00,62.7,55.0,29.90,South,191,0.0,2.0,77,0.00,,,0.00,weatherlink.com 1.10,2013-04-08 09:24:00,
2013-04-08 04:39:00,62.4,55.0,29.90,SSE,165,1.0,1.0,78,0.00,,,0.00,weatherlink.com 1.10,2013-04-08 09:39:00,
2013-04-08 04:54:00,62.3,56.0,29.90,SSW,195,0.0,2.0,79,0.00,,,0.00,weatherlink.com 1.10,2013-04-08 09:54:00,
2013-04-08 05:39:00,62.0,56.0,29.91,SSE,154,0.0,1.0,82,0.00,,,0.00,weatherlink.com 1.10,2013-04-08 10:39:00,
2013-04-08 05:54:00,61.9,56.0,29.92,SSW,201,1.0,1.0,82,0.00,,,0.00,weatherlink.com 1.10,2013-04-08 10:54:00,
2013-04-08 06:09:00,62.3,57.0,29.92,SSW,208,0.0,2.0,83,0.00,,,0.00,weatherlink.com 1.10,2013-04-08 11:09:00,
2013-04-08 06:24:00,62.9,58.0,29.93,SSE,160,0.0,2.0,83,0.00,,,0.00,weatherlink.com 1.10,2013-04-08 11:24:00,
2013-04-08 06:39:00,63.2,58.0,29.93,SSE,159,1.0,2.0,82,0.00,,,0.00,weatherlink.com 1.10,2013-04-08 11:39:00,
2013-04-08 06:54:00,63.4,58.0,29.93,SSE,162,0.0,2.0,82,0.00,,,0.00,weatherlink.com 1.10,2013-04-08 11:54:00,
2013-04-08 07:09:00,63.2,58.0,29.94,SSE,162,0.0,1.0,82,0.00,,,0.00,weatherlink.com 1.10,2013-04-08 12:09:00,
2013-04-08 07:24:00,63.0,58.0,29.95,SSE,162,0.0,1.0,84,0.00,,,0.00,weatherlink.com 1.10,2013-04-08 12:24:00,
2013-04-08 07:39:00,63.2,58.0,29.95,SSE,162,0.0,1.0,83,0.00,,,0.00,weatherlink.com 1.10,2013-04-08 12:39:00,
2013-04-08 07:54:00,63.5,58.0,29.96,South,170,0.0,2.0,83,0.00,,,0.00,weatherlink.com 1.10,2013-04-08 12:54:00,
2013-04-08 08:09:00,64.0,59.0,29.96,SSE,167,0.0,1.0,83,0.00,,,0.00,weatherlink.com 1.10,2013-04-08 13:09:00,
2013-04-08 08:24:00,64.5,59.0,29.96,SSE,167,0.0,1.0,82,0.00,,,0.00,weatherlink.com 1.10,2013-04-08 13:24:00,
2013-04-08 08:39:00,65.2,59.0,29.96,SSE,167,0.0,1.0,81,0.00,,,0.00,weatherlink.com 1.10,2013-04-08 13:39:00,
2013-04-08 08:54:00,66.1,59.0,29.97,SSE,155,0.0,2.0,79,0.00,,,0.00,weatherlink.com 1.10,2013-04-08 13:54:00,
2013-04-08 09:39:00,67.9,60.0,29.98,SSW,201,0.0,3.0,75,0.00,,,0.00,weatherlink.com 1.10,2013-04-08 14:39:00,
2013-04-08 09:54:00,68.6,60.0,29.98,SSW,200,0.0,2.0,74,0.00,,,0.00,weatherlink.com 1.10,2013-04-08 14:54:00,
2013-04-08 10:09:00,68.9,60.0,29.99,SW,217,1.0,3.0,73,0.00,,,0.00,weatherlink.com 1.10,2013-04-08 15:09:00,
2013-04-08 10:24:00,69.3,60.0,29.99,SSW,204,1.0,3.0,72,0.00,,,0.00,weatherlink.com 1.10,2013-04-08 15:24:00,
2013-04-08 10:39:00,69.9,60.0,29.99,SW,221,2.0,3.0,71,0.00,,,0.00,weatherlink.com 1.10,2013-04-08 15:39:00,
2013-04-08 10:54:00,71.1,60.0,29.99,SSE,164,1.0,3.0,69,0.00,,,0.00,weatherlink.com 1.10,2013-04-08 15:54:00,
2013-04-08 11:09:00,72.0,60.0,29.99,SW,222,2.0,3.0,66,0.00,,,0.00,weatherlink.com 1.10,2013-04-08 16:09:00,
2013-04-08 11:24:00,71.2,60.0,29.99,SSW,200,1.0,3.0,67,0.00,,,0.00,weatherlink.com 1.10,2013-04-08 16:24:00,
2013-04-08 11:39:00,72.2,60.0,29.98,SSW,202,1.0,3.0,65,0.00,,,0.00,weatherlink.com 1.10,2013-04-08 16:39:00,
2013-04-08 12:09:00,73.8,59.0,29.98,WSW,248,1.0,4.0,61,0.00,,,0.00,weatherlink.com 1.10,2013-04-08 17:09:00,
2013-04-08 12:24:00,74.4,60.0,29.96,South,179,1.0,2.0,61,0.00,,,0.00,weatherlink.com 1.10,2013-04-08 17:24:00,
2013-04-08 12:40:00,74.0,59.0,29.96,South,183,3.0,3.0,60,0.00,,,0.00,weatherlink.com 1.10,2013-04-08 17:40:00,
2013-04-08 12:54:00,74.5,59.0,29.95,SSW,196,1.0,4.0,59,0.00,,,0.00,weatherlink.com 1.10,2013-04-08 17:54:00,
2013-04-08 13:09:00,74.1,58.0,29.95,SW,214,2.0,3.0,58,0.00,,,0.00,weatherlink.com 1.10,2013-04-08 18:09:00,
2013-04-08 13:24:00,74.8,59.0,29.94,SSE,155,1.0,3.0,58,0.00,,,0.00,weatherlink.com 1.10,2013-04-08 18:24:00,
2013-04-08 13:39:00,75.0,59.0,29.93,South,176,2.0,3.0,57,0.00,,,0.00,weatherlink.com 1.10,2013-04-08 18:39:00,
2013-04-08 13:54:00,75.8,57.0,29.92,SSW,196,4.0,5.0,53,0.00,,,0.00,weatherlink.com 1.10,2013-04-08 18:54:00,
2013-04-08 14:10:00,77.6,57.0,29.92,South,186,2.0,5.0,49,0.00,,,0.00,weatherlink.com 1.10,2013-04-08 19:10:00,
2013-04-08 14:25:00,79.3,58.0,29.91,SW,217,2.0,4.0,48,0.00,,,0.00,weatherlink.com 1.10,2013-04-08 19:25:00,
2013-04-08 14:40:00,80.1,59.0,29.91,SSW,201,2.0,4.0,48,0.00,,,0.00,weatherlink.com 1.10,2013-04-08 19:40:00,
2013-04-08 14:55:00,80.1,57.0,29.90,SSW,192,1.0,5.0,46,0.00,,,0.00,weatherlink.com 1.10,2013-04-08 19:55:00,
2013-04-08 15:10:00,80.5,58.0,29.89,South,176,1.0,4.0,46,0.00,,,0.00,weatherlink.com 1.10,2013-04-08 20:10:00,
2013-04-08 15:40:00,82.5,58.0,29.88,SSE,159,1.0,3.0,44,0.00,,,0.00,weatherlink.com 1.10,2013-04-08 20:40:00,
2013-04-08 15:55:00,82.2,58.0,29.87,SW,218,1.0,4.0,44,0.00,,,0.00,weatherlink.com 1.10,2013-04-08 20:55:00,
2013-04-08 16:10:00,82.7,58.0,29.87,SSE,168,1.0,4.0,43,0.00,,,0.00,weatherlink.com 1.10,2013-04-08 21:10:00,
2013-04-08 16:25:00,83.7,58.0,29.86,SSW,193,2.0,3.0,42,0.00,,,0.00,weatherlink.com 1.10,2013-04-08 21:25:00,
2013-04-08 16:40:00,83.7,58.0,29.86,South,191,0.0,4.0,42,0.00,,,0.00,weatherlink.com 1.10,2013-04-08 21:40:00,
2013-04-08 16:56:00,84.1,59.0,29.86,SSE,160,1.0,4.0,43,0.00,,,0.00,weatherlink.com 1.10,2013-04-08 21:56:00,
2013-04-08 17:26:00,84.0,57.0,29.86,South,179,1.0,3.0,40,0.00,,,0.00,weatherlink.com 1.10,2013-04-08 22:26:00,
2013-04-08 17:41:00,83.2,58.0,29.86,SSW,197,1.0,3.0,42,0.00,,,0.00,weatherlink.com 1.10,2013-04-08 22:41:00,
2013-04-08 18:11:00,81.5,57.0,29.87,SW,215,2.0,3.0,43,0.00,,,0.00,weatherlink.com 1.10,2013-04-08 23:11:00,
2013-04-08 18:26:00,80.8,57.0,29.87,SSE,165,0.0,2.0,44,0.00,,,0.00,weatherlink.com 1.10,2013-04-08 23:26:00,
2013-04-08 18:41:00,80.6,57.0,29.87,SSE,166,0.0,2.0,45,0.00,,,0.00,weatherlink.com 1.10,2013-04-08 23:41:00,
2013-04-08 18:56:00,79.3,57.0,29.87,SSE,156,1.0,2.0,46,0.00,,,0.00,weatherlink.com 1.10,2013-04-08 23:56:00,
2013-04-08 20:11:00,69.1,56.0,29.87,SE,136,0.0,0.0,63,0.00,,,0.00,weatherlink.com 1.10,2013-04-09 01:11:00,
2013-04-08 20:41:00,67.3,56.0,29.88,SE,136,0.0,0.0,67,0.00,,,0.00,weatherlink.com 1.10,2013-04-09 01:41:00,
2013-04-08 21:11:00,66.2,56.0,29.89,SE,136,0.0,0.0,70,0.00,,,0.00,weatherlink.com 1.10,2013-04-09 02:11:00,
2013-04-08 21:41:00,65.1,57.0,29.89,SE,135,0.0,0.0,74,0.00,,,0.00,weatherlink.com 1.10,2013-04-09 02:41:00,
2013-04-08 22:11:00,64.3,57.0,29.89,SE,136,0.0,0.0,76,0.00,,,0.00,weatherlink.com 1.10,2013-04-09 03:11:00,
2013-04-08 22:41:00,63.5,57.0,29.89,SE,135,0.0,0.0,78,0.00,,,0.00,weatherlink.com 1.10,2013-04-09 03:41:00,
2013-04-08 22:56:00,63.1,57.0,29.90,SE,135,0.0,0.0,79,0.00,,,0.00,weatherlink.com 1.10,2013-04-09 03:56:00,
2013-04-08 23:11:00,62.7,56.0,29.90,SE,136,0.0,0.0,80,0.00,,,0.00,weatherlink.com 1.10,2013-04-09 04:11:00,
2013-04-08 23:26:00,62.7,57.0,29.90,SE,136,0.0,0.0,82,0.00,,,0.00,weatherlink.com 1.10,2013-04-09 04:26:00,
2013-04-08 23:56:00,63.7,58.0,29.90,SE,135,0.0,0.0,81,0.00,,,0.00,weatherlink.com 1.10,2013-04-09 04:56:00,